sensor_id;sensor_type;location;lat;lon;timestamp;temperature;humidity
26230;DHT22;13960;50.860;4.352;2022-08-19T00:00:48;21.30;99.90
26230;DHT22;13960;50.860;4.352;2022-08-19T00:03:13;21.40;99.90
26230;DHT22;13960;50.860;4.352;2022-08-19T00:05:39;21.30;99.90
26230;DHT22;13960;50.860;4.352;2022-08-19T00:08:07;21.20;99.90
26230;DHT22;13960;50.860;4.352;2022-08-19T00:10:33;21.10;99.90
26230;DHT22;13960;50.860;4.352;2022-08-19T00:12:59;20.90;99.90
26230;DHT22;13960;50.860;4.352;2022-08-19T00:15:25;20.60;99.90
26230;DHT22;13960;50.860;4.352;2022-08-19T00:17:51;20.70;99.90
26230;DHT22;13960;50.860;4.352;2022-08-19T00:20:18;20.90;99.90
26230;DHT22;13960;50.860;4.352;2022-08-19T00:22:44;20.90;99.90
26230;DHT22;13960;50.860;4.352;2022-08-19T00:25:11;20.80;99.90
26230;DHT22;13960;50.860;4.352;2022-08-19T00:27:36;20.90;99.90
26230;DHT22;13960;50.860;4.352;2022-08-19T00:30:03;20.80;99.90
26230;DHT22;13960;50.860;4.352;2022-08-19T00:32:29;20.60;99.90
26230;DHT22;13960;50.860;4.352;2022-08-19T00:34:55;20.60;99.90
26230;DHT22;13960;50.860;4.352;2022-08-19T00:37:22;20.70;99.90
26230;DHT22;13960;50.860;4.352;2022-08-19T00:39:49;20.70;99.90
26230;DHT22;13960;50.860;4.352;2022-08-19T00:42:17;20.70;99.90
26230;DHT22;13960;50.860;4.352;2022-08-19T00:44:44;20.80;99.90
26230;DHT22;13960;50.860;4.352;2022-08-19T00:47:11;21.00;99.90
26230;DHT22;13960;50.860;4.352;2022-08-19T00:49:43;20.90;99.90
26230;DHT22;13960;50.860;4.352;2022-08-19T00:52:21;20.70;99.90
26230;DHT22;13960;50.860;4.352;2022-08-19T00:54:47;20.60;99.90
26230;DHT22;13960;50.860;4.352;2022-08-19T00:57:16;20.60;99.90
26230;DHT22;13960;50.860;4.352;2022-08-19T00:59:44;20.60;99.90
26230;DHT22;13960;50.860;4.352;2022-08-19T01:02:11;20.80;99.90
26230;DHT22;13960;50.860;4.352;2022-08-19T01:04:38;20.40;99.90
26230;DHT22;13960;50.860;4.352;2022-08-19T01:07:05;20.30;99.90
26230;DHT22;13960;50.860;4.352;2022-08-19T01:09:33;20.30;99.90
26230;DHT22;13960;50.860;4.352;2022-08-19T01:11:59;20.30;99.90
26230;DHT22;13960;50.860;4.352;2022-08-19T01:14:25;20.30;99.90
26230;DHT22;13960;50.860;4.352;2022-08-19T01:16:50;20.40;99.90
26230;DHT22;13960;50.860;4.352;2022-08-19T01:19:30;20.60;99.90
26230;DHT22;13960;50.860;4.352;2022-08-19T01:22:03;20.60;99.90
26230;DHT22;13960;50.860;4.352;2022-08-19T01:24:32;20.40;99.90
26230;DHT22;13960;50.860;4.352;2022-08-19T01:26:58;20.40;99.90
26230;DHT22;13960;50.860;4.352;2022-08-19T01:29:24;20.30;99.90
26230;DHT22;13960;50.860;4.352;2022-08-19T01:31:50;20.30;99.90
26230;DHT22;13960;50.860;4.352;2022-08-19T01:34:18;20.30;99.90
26230;DHT22;13960;50.860;4.352;2022-08-19T01:36:45;20.30;99.90
26230;DHT22;13960;50.860;4.352;2022-08-19T01:39:15;20.40;99.90
26230;DHT22;13960;50.860;4.352;2022-08-19T01:41:42;20.20;99.90
26230;DHT22;13960;50.860;4.352;2022-08-19T01:44:09;20.00;99.90
26230;DHT22;13960;50.860;4.352;2022-08-19T01:46:37;19.90;99.90
26230;DHT22;13960;50.860;4.352;2022-08-19T01:49:05;19.90;99.90
26230;DHT22;13960;50.860;4.352;2022-08-19T01:51:31;20.00;99.90
26230;DHT22;13960;50.860;4.352;2022-08-19T01:53:57;19.80;99.90
26230;DHT22;13960;50.860;4.352;2022-08-19T01:56:23;19.80;99.90
26230;DHT22;13960;50.860;4.352;2022-08-19T01:58:54;19.70;99.90
26230;DHT22;13960;50.860;4.352;2022-08-19T02:03:50;19.70;99.90
26230;DHT22;13960;50.860;4.352;2022-08-19T02:06:17;19.50;99.90
26230;DHT22;13960;50.860;4.352;2022-08-19T02:08:44;19.50;99.90
26230;DHT22;13960;50.860;4.352;2022-08-19T02:11:23;19.40;99.90
26230;DHT22;13960;50.860;4.352;2022-08-19T02:13:55;19.40;99.90
26230;DHT22;13960;50.860;4.352;2022-08-19T02:16:23;19.30;99.90
26230;DHT22;13960;50.860;4.352;2022-08-19T02:18:52;19.50;99.90
26230;DHT22;13960;50.860;4.352;2022-08-19T02:21:20;19.60;99.90
26230;DHT22;13960;50.860;4.352;2022-08-19T02:23:47;19.50;99.90
26230;DHT22;13960;50.860;4.352;2022-08-19T02:26:15;19.60;99.90
26230;DHT22;13960;50.860;4.352;2022-08-19T02:28:42;19.60;99.90
26230;DHT22;13960;50.860;4.352;2022-08-19T02:31:11;19.50;99.90
26230;DHT22;13960;50.860;4.352;2022-08-19T02:33:39;19.30;99.90
26230;DHT22;13960;50.860;4.352;2022-08-19T02:36:05;19.30;99.90
26230;DHT22;13960;50.860;4.352;2022-08-19T02:41:02;19.30;99.90
26230;DHT22;13960;50.860;4.352;2022-08-19T02:43:29;19.00;99.90
26230;DHT22;13960;50.860;4.352;2022-08-19T02:45:56;19.10;99.90
26230;DHT22;13960;50.860;4.352;2022-08-19T02:48:24;19.20;99.90
26230;DHT22;13960;50.860;4.352;2022-08-19T02:50:50;19.40;99.90
26230;DHT22;13960;50.860;4.352;2022-08-19T02:53:25;19.20;99.90
26230;DHT22;13960;50.860;4.352;2022-08-19T02:55:55;18.80;99.90
26230;DHT22;13960;50.860;4.352;2022-08-19T02:58:21;18.80;99.90
26230;DHT22;13960;50.860;4.352;2022-08-19T03:00:49;18.70;99.90
26230;DHT22;13960;50.860;4.352;2022-08-19T03:05:46;18.60;99.90
26230;DHT22;13960;50.860;4.352;2022-08-19T03:08:17;18.60;99.90
26230;DHT22;13960;50.860;4.352;2022-08-19T03:10:44;18.80;99.90
26230;DHT22;13960;50.860;4.352;2022-08-19T03:13:13;18.70;99.90
26230;DHT22;13960;50.860;4.352;2022-08-19T03:15:44;18.60;99.90
26230;DHT22;13960;50.860;4.352;2022-08-19T03:18:12;18.60;99.90
26230;DHT22;13960;50.860;4.352;2022-08-19T03:20:42;18.50;99.90
26230;DHT22;13960;50.860;4.352;2022-08-19T03:23:09;18.60;99.90
26230;DHT22;13960;50.860;4.352;2022-08-19T03:25:43;18.50;99.90
26230;DHT22;13960;50.860;4.352;2022-08-19T03:28:13;18.60;99.90
26230;DHT22;13960;50.860;4.352;2022-08-19T03:30:41;18.70;99.90
26230;DHT22;13960;50.860;4.352;2022-08-19T03:33:10;18.80;99.90
26230;DHT22;13960;50.860;4.352;2022-08-19T03:35:38;18.80;99.90
26230;DHT22;13960;50.860;4.352;2022-08-19T03:38:05;18.90;99.90
26230;DHT22;13960;50.860;4.352;2022-08-19T03:40:33;18.90;99.90
26230;DHT22;13960;50.860;4.352;2022-08-19T03:43:01;18.90;99.90
26230;DHT22;13960;50.860;4.352;2022-08-19T03:47:56;18.50;99.90
26230;DHT22;13960;50.860;4.352;2022-08-19T03:50:21;18.40;99.90
26230;DHT22;13960;50.860;4.352;2022-08-19T03:52:50;18.50;99.90
26230;DHT22;13960;50.860;4.352;2022-08-19T03:55:17;18.50;99.90
26230;DHT22;13960;50.860;4.352;2022-08-19T03:57:44;18.50;99.90
26230;DHT22;13960;50.860;4.352;2022-08-19T04:00:11;18.50;99.90
26230;DHT22;13960;50.860;4.352;2022-08-19T04:02:37;18.40;99.90
26230;DHT22;13960;50.860;4.352;2022-08-19T04:05:02;18.30;99.90
26230;DHT22;13960;50.860;4.352;2022-08-19T04:07:28;18.30;99.90
26230;DHT22;13960;50.860;4.352;2022-08-19T04:09:53;18.20;99.90
26230;DHT22;13960;50.860;4.352;2022-08-19T04:12:19;18.00;99.90
26230;DHT22;13960;50.860;4.352;2022-08-19T04:14:45;18.10;99.90
26230;DHT22;13960;50.860;4.352;2022-08-19T04:17:11;18.10;99.90
26230;DHT22;13960;50.860;4.352;2022-08-19T04:19:38;18.00;99.90
26230;DHT22;13960;50.860;4.352;2022-08-19T04:22:04;18.10;99.90
26230;DHT22;13960;50.860;4.352;2022-08-19T04:24:29;18.20;99.90
26230;DHT22;13960;50.860;4.352;2022-08-19T04:26:55;18.20;99.90
26230;DHT22;13960;50.860;4.352;2022-08-19T04:29:22;18.20;99.90
26230;DHT22;13960;50.860;4.352;2022-08-19T04:31:50;18.20;99.90
26230;DHT22;13960;50.860;4.352;2022-08-19T04:34:18;18.10;99.90
26230;DHT22;13960;50.860;4.352;2022-08-19T04:36:47;18.00;99.90
26230;DHT22;13960;50.860;4.352;2022-08-19T04:39:17;18.10;99.90
26230;DHT22;13960;50.860;4.352;2022-08-19T04:41:43;18.20;99.90
26230;DHT22;13960;50.860;4.352;2022-08-19T04:44:27;18.10;99.90
26230;DHT22;13960;50.860;4.352;2022-08-19T04:46:55;17.90;99.90
26230;DHT22;13960;50.860;4.352;2022-08-19T04:49:21;18.00;99.90
26230;DHT22;13960;50.860;4.352;2022-08-19T04:51:47;17.90;99.90
26230;DHT22;13960;50.860;4.352;2022-08-19T04:54:13;17.90;99.90
26230;DHT22;13960;50.860;4.352;2022-08-19T04:56:39;17.90;99.90
26230;DHT22;13960;50.860;4.352;2022-08-19T04:59:05;17.80;99.90
26230;DHT22;13960;50.860;4.352;2022-08-19T05:01:31;17.90;99.90
26230;DHT22;13960;50.860;4.352;2022-08-19T05:03:58;18.00;99.90
26230;DHT22;13960;50.860;4.352;2022-08-19T05:06:24;17.90;99.90
26230;DHT22;13960;50.860;4.352;2022-08-19T05:08:50;18.00;99.90
26230;DHT22;13960;50.860;4.352;2022-08-19T05:11:17;18.00;99.90
26230;DHT22;13960;50.860;4.352;2022-08-19T05:13:43;18.00;99.90
26230;DHT22;13960;50.860;4.352;2022-08-19T05:16:10;18.00;99.90
26230;DHT22;13960;50.860;4.352;2022-08-19T05:18:36;18.10;99.90
26230;DHT22;13960;50.860;4.352;2022-08-19T05:21:21;18.20;99.90
26230;DHT22;13960;50.860;4.352;2022-08-19T05:24:06;18.10;99.90
26230;DHT22;13960;50.860;4.352;2022-08-19T05:26:38;18.20;99.90
26230;DHT22;13960;50.860;4.352;2022-08-19T05:29:04;18.00;99.90
26230;DHT22;13960;50.860;4.352;2022-08-19T05:31:30;17.90;99.90
26230;DHT22;13960;50.860;4.352;2022-08-19T05:33:56;17.90;99.90
26230;DHT22;13960;50.860;4.352;2022-08-19T05:36:27;17.80;99.90
26230;DHT22;13960;50.860;4.352;2022-08-19T05:38:53;17.90;99.90
26230;DHT22;13960;50.860;4.352;2022-08-19T05:41:20;18.00;99.90
26230;DHT22;13960;50.860;4.352;2022-08-19T05:43:46;18.00;99.90
26230;DHT22;13960;50.860;4.352;2022-08-19T05:46:18;18.00;99.90
26230;DHT22;13960;50.860;4.352;2022-08-19T05:48:44;18.20;99.90
26230;DHT22;13960;50.860;4.352;2022-08-19T05:51:09;18.30;99.90
26230;DHT22;13960;50.860;4.352;2022-08-19T05:53:35;18.30;99.90
26230;DHT22;13960;50.860;4.352;2022-08-19T05:56:05;18.30;99.90
26230;DHT22;13960;50.860;4.352;2022-08-19T05:58:30;18.40;99.90
26230;DHT22;13960;50.860;4.352;2022-08-19T06:00:57;18.30;99.90
26230;DHT22;13960;50.860;4.352;2022-08-19T06:03:23;18.40;99.90
26230;DHT22;13960;50.860;4.352;2022-08-19T06:05:48;18.40;99.90
26230;DHT22;13960;50.860;4.352;2022-08-19T06:08:14;18.50;99.90
26230;DHT22;13960;50.860;4.352;2022-08-19T06:10:39;18.60;99.90
26230;DHT22;13960;50.860;4.352;2022-08-19T06:13:05;18.70;99.90
26230;DHT22;13960;50.860;4.352;2022-08-19T06:15:30;18.60;99.90
26230;DHT22;13960;50.860;4.352;2022-08-19T06:17:56;18.50;99.90
26230;DHT22;13960;50.860;4.352;2022-08-19T06:20:22;18.40;99.90
26230;DHT22;13960;50.860;4.352;2022-08-19T06:22:48;18.40;99.90
26230;DHT22;13960;50.860;4.352;2022-08-19T06:25:17;18.50;99.90
26230;DHT22;13960;50.860;4.352;2022-08-19T06:27:43;18.40;99.90
26230;DHT22;13960;50.860;4.352;2022-08-19T06:30:09;18.50;99.90
26230;DHT22;13960;50.860;4.352;2022-08-19T06:32:36;18.70;99.90
26230;DHT22;13960;50.860;4.352;2022-08-19T06:35:02;18.80;99.90
26230;DHT22;13960;50.860;4.352;2022-08-19T06:37:28;18.80;99.90
26230;DHT22;13960;50.860;4.352;2022-08-19T06:39:53;18.80;99.90
26230;DHT22;13960;50.860;4.352;2022-08-19T06:42:18;18.70;99.90
26230;DHT22;13960;50.860;4.352;2022-08-19T06:44:45;18.50;99.90
26230;DHT22;13960;50.860;4.352;2022-08-19T06:47:12;18.50;99.90
26230;DHT22;13960;50.860;4.352;2022-08-19T06:49:38;18.70;99.90
26230;DHT22;13960;50.860;4.352;2022-08-19T06:52:04;18.60;99.90
26230;DHT22;13960;50.860;4.352;2022-08-19T06:54:30;18.60;99.90
26230;DHT22;13960;50.860;4.352;2022-08-19T06:56:57;18.80;99.90
26230;DHT22;13960;50.860;4.352;2022-08-19T06:59:23;18.90;99.90
26230;DHT22;13960;50.860;4.352;2022-08-19T07:01:53;18.70;99.90
26230;DHT22;13960;50.860;4.352;2022-08-19T07:04:20;18.90;99.90
26230;DHT22;13960;50.860;4.352;2022-08-19T07:06:48;19.00;99.90
26230;DHT22;13960;50.860;4.352;2022-08-19T07:09:15;19.00;99.90
26230;DHT22;13960;50.860;4.352;2022-08-19T07:11:59;18.80;99.90
26230;DHT22;13960;50.860;4.352;2022-08-19T07:14:26;18.70;99.90
26230;DHT22;13960;50.860;4.352;2022-08-19T07:16:52;18.70;99.90
26230;DHT22;13960;50.860;4.352;2022-08-19T07:19:20;18.80;99.90
26230;DHT22;13960;50.860;4.352;2022-08-19T07:21:47;19.00;99.90
26230;DHT22;13960;50.860;4.352;2022-08-19T07:24:12;19.20;99.90
26230;DHT22;13960;50.860;4.352;2022-08-19T07:26:39;19.30;99.90
26230;DHT22;13960;50.860;4.352;2022-08-19T07:29:05;19.30;99.90
26230;DHT22;13960;50.860;4.352;2022-08-19T07:31:31;19.20;99.90
26230;DHT22;13960;50.860;4.352;2022-08-19T07:34:01;19.20;99.90
26230;DHT22;13960;50.860;4.352;2022-08-19T07:36:28;19.40;99.90
26230;DHT22;13960;50.860;4.352;2022-08-19T07:38:56;19.50;99.90
26230;DHT22;13960;50.860;4.352;2022-08-19T07:41:22;19.40;99.90
26230;DHT22;13960;50.860;4.352;2022-08-19T07:43:48;19.50;99.90
26230;DHT22;13960;50.860;4.352;2022-08-19T07:46:14;19.60;99.90
26230;DHT22;13960;50.860;4.352;2022-08-19T07:48:41;19.80;99.90
26230;DHT22;13960;50.860;4.352;2022-08-19T07:51:07;19.60;99.90
26230;DHT22;13960;50.860;4.352;2022-08-19T07:53:34;19.70;99.90
26230;DHT22;13960;50.860;4.352;2022-08-19T07:55:59;19.80;99.90
26230;DHT22;13960;50.860;4.352;2022-08-19T07:58:30;19.90;99.90
26230;DHT22;13960;50.860;4.352;2022-08-19T08:00:55;19.90;99.90
26230;DHT22;13960;50.860;4.352;2022-08-19T08:03:22;19.80;99.90
26230;DHT22;13960;50.860;4.352;2022-08-19T08:06:08;20.00;99.90
26230;DHT22;13960;50.860;4.352;2022-08-19T08:08:52;20.20;99.90
26230;DHT22;13960;50.860;4.352;2022-08-19T08:11:38;20.40;99.90
26230;DHT22;13960;50.860;4.352;2022-08-19T08:14:04;20.40;99.90
26230;DHT22;13960;50.860;4.352;2022-08-19T08:16:32;20.50;99.90
26230;DHT22;13960;50.860;4.352;2022-08-19T08:18:58;20.40;99.90
26230;DHT22;13960;50.860;4.352;2022-08-19T08:21:24;20.50;99.90
26230;DHT22;13960;50.860;4.352;2022-08-19T08:23:50;20.10;99.90
26230;DHT22;13960;50.860;4.352;2022-08-19T08:26:17;20.10;99.90
26230;DHT22;13960;50.860;4.352;2022-08-19T08:28:42;20.20;99.90
26230;DHT22;13960;50.860;4.352;2022-08-19T08:31:08;20.20;99.90
26230;DHT22;13960;50.860;4.352;2022-08-19T08:33:34;20.20;99.90
26230;DHT22;13960;50.860;4.352;2022-08-19T08:36:00;20.30;99.90
26230;DHT22;13960;50.860;4.352;2022-08-19T08:38:26;20.40;99.90
26230;DHT22;13960;50.860;4.352;2022-08-19T08:40:57;20.30;99.90
26230;DHT22;13960;50.860;4.352;2022-08-19T08:43:35;20.40;99.90
26230;DHT22;13960;50.860;4.352;2022-08-19T08:46:06;20.60;99.90
26230;DHT22;13960;50.860;4.352;2022-08-19T08:48:37;20.60;99.90
26230;DHT22;13960;50.860;4.352;2022-08-19T08:51:16;20.60;99.90
26230;DHT22;13960;50.860;4.352;2022-08-19T08:53:44;20.40;99.90
26230;DHT22;13960;50.860;4.352;2022-08-19T08:56:10;20.60;99.90
26230;DHT22;13960;50.860;4.352;2022-08-19T08:58:45;20.70;99.90
26230;DHT22;13960;50.860;4.352;2022-08-19T09:01:12;20.80;99.90
26230;DHT22;13960;50.860;4.352;2022-08-19T09:03:39;20.60;99.90
26230;DHT22;13960;50.860;4.352;2022-08-19T09:06:11;20.60;99.90
26230;DHT22;13960;50.860;4.352;2022-08-19T09:11:19;20.90;99.90
26230;DHT22;13960;50.860;4.352;2022-08-19T09:13:57;20.90;99.90
26230;DHT22;13960;50.860;4.352;2022-08-19T09:16:26;20.80;99.90
26230;DHT22;13960;50.860;4.352;2022-08-19T09:18:54;20.80;99.90
26230;DHT22;13960;50.860;4.352;2022-08-19T09:21:21;20.90;99.90
26230;DHT22;13960;50.860;4.352;2022-08-19T09:23:48;21.00;99.90
26230;DHT22;13960;50.860;4.352;2022-08-19T09:26:14;21.10;99.90
26230;DHT22;13960;50.860;4.352;2022-08-19T09:28:41;21.00;99.90
26230;DHT22;13960;50.860;4.352;2022-08-19T09:31:10;21.00;99.90
26230;DHT22;13960;50.860;4.352;2022-08-19T09:33:36;20.90;99.90
26230;DHT22;13960;50.860;4.352;2022-08-19T09:36:09;20.90;99.90
26230;DHT22;13960;50.860;4.352;2022-08-19T09:38:35;21.00;99.90
26230;DHT22;13960;50.860;4.352;2022-08-19T09:41:05;20.90;99.90
26230;DHT22;13960;50.860;4.352;2022-08-19T09:43:31;21.00;99.90
26230;DHT22;13960;50.860;4.352;2022-08-19T09:45:57;21.10;99.90
26230;DHT22;13960;50.860;4.352;2022-08-19T09:48:22;21.20;99.90
26230;DHT22;13960;50.860;4.352;2022-08-19T09:50:48;21.30;99.90
26230;DHT22;13960;50.860;4.352;2022-08-19T09:53:14;21.20;99.90
26230;DHT22;13960;50.860;4.352;2022-08-19T09:55:43;21.10;99.90
26230;DHT22;13960;50.860;4.352;2022-08-19T09:58:09;21.10;99.90
26230;DHT22;13960;50.860;4.352;2022-08-19T10:00:36;21.20;99.90
26230;DHT22;13960;50.860;4.352;2022-08-19T10:03:02;21.10;99.90
26230;DHT22;13960;50.860;4.352;2022-08-19T10:05:27;21.20;99.90
26230;DHT22;13960;50.860;4.352;2022-08-19T10:08:12;21.40;99.90
26230;DHT22;13960;50.860;4.352;2022-08-19T10:10:37;21.40;99.90
26230;DHT22;13960;50.860;4.352;2022-08-19T10:13:03;21.20;99.90
26230;DHT22;13960;50.860;4.352;2022-08-19T10:15:29;21.20;99.90
26230;DHT22;13960;50.860;4.352;2022-08-19T10:17:55;21.30;99.90
26230;DHT22;13960;50.860;4.352;2022-08-19T10:20:20;21.30;99.90
26230;DHT22;13960;50.860;4.352;2022-08-19T10:22:47;21.40;99.90
26230;DHT22;13960;50.860;4.352;2022-08-19T10:25:13;21.20;99.90
26230;DHT22;13960;50.860;4.352;2022-08-19T10:27:39;21.10;99.90
26230;DHT22;13960;50.860;4.352;2022-08-19T10:30:05;21.20;99.90
26230;DHT22;13960;50.860;4.352;2022-08-19T10:32:31;21.10;99.90
26230;DHT22;13960;50.860;4.352;2022-08-19T10:34:57;21.20;99.90
26230;DHT22;13960;50.860;4.352;2022-08-19T10:37:22;21.20;99.90
26230;DHT22;13960;50.860;4.352;2022-08-19T10:39:48;21.20;99.90
26230;DHT22;13960;50.860;4.352;2022-08-19T10:42:14;21.30;99.90
26230;DHT22;13960;50.860;4.352;2022-08-19T10:44:41;21.30;99.90
26230;DHT22;13960;50.860;4.352;2022-08-19T10:47:06;21.50;99.90
26230;DHT22;13960;50.860;4.352;2022-08-19T10:49:32;21.50;99.90
26230;DHT22;13960;50.860;4.352;2022-08-19T10:52:17;21.40;99.90
26230;DHT22;13960;50.860;4.352;2022-08-19T10:54:59;21.40;99.90
26230;DHT22;13960;50.860;4.352;2022-08-19T10:57:43;21.30;99.90
26230;DHT22;13960;50.860;4.352;2022-08-19T11:00:09;21.30;99.90
26230;DHT22;13960;50.860;4.352;2022-08-19T11:02:35;21.30;99.90
26230;DHT22;13960;50.860;4.352;2022-08-19T11:05:00;21.40;99.90
26230;DHT22;13960;50.860;4.352;2022-08-19T11:07:26;21.40;99.90
26230;DHT22;13960;50.860;4.352;2022-08-19T11:09:51;21.20;99.90
26230;DHT22;13960;50.860;4.352;2022-08-19T11:12:17;21.20;99.90
26230;DHT22;13960;50.860;4.352;2022-08-19T11:14:44;21.40;99.90
26230;DHT22;13960;50.860;4.352;2022-08-19T11:17:10;21.50;99.90
26230;DHT22;13960;50.860;4.352;2022-08-19T11:19:37;21.50;99.90
26230;DHT22;13960;50.860;4.352;2022-08-19T11:22:03;21.40;99.90
26230;DHT22;13960;50.860;4.352;2022-08-19T11:24:30;21.70;99.90
26230;DHT22;13960;50.860;4.352;2022-08-19T11:27:03;21.90;99.90
26230;DHT22;13960;50.860;4.352;2022-08-19T11:29:30;22.00;99.90
26230;DHT22;13960;50.860;4.352;2022-08-19T11:31:56;22.00;99.90
26230;DHT22;13960;50.860;4.352;2022-08-19T11:34:22;22.20;99.90
26230;DHT22;13960;50.860;4.352;2022-08-19T11:36:48;22.10;99.90
26230;DHT22;13960;50.860;4.352;2022-08-19T11:39:18;22.00;99.90
26230;DHT22;13960;50.860;4.352;2022-08-19T11:41:43;22.00;99.90
26230;DHT22;13960;50.860;4.352;2022-08-19T11:44:09;21.80;99.90
26230;DHT22;13960;50.860;4.352;2022-08-19T11:46:35;21.80;99.90
26230;DHT22;13960;50.860;4.352;2022-08-19T11:49:01;22.10;99.90
26230;DHT22;13960;50.860;4.352;2022-08-19T11:51:28;22.20;99.90
26230;DHT22;13960;50.860;4.352;2022-08-19T11:53:55;22.40;99.90
26230;DHT22;13960;50.860;4.352;2022-08-19T11:56:21;22.50;99.90
26230;DHT22;13960;50.860;4.352;2022-08-19T11:58:47;22.70;99.90
26230;DHT22;13960;50.860;4.352;2022-08-19T12:01:14;22.80;99.90
26230;DHT22;13960;50.860;4.352;2022-08-19T12:03:44;23.10;99.90
26230;DHT22;13960;50.860;4.352;2022-08-19T12:06:11;23.30;99.90
26230;DHT22;13960;50.860;4.352;2022-08-19T12:08:39;23.50;99.90
26230;DHT22;13960;50.860;4.352;2022-08-19T12:11:04;23.50;99.90
26230;DHT22;13960;50.860;4.352;2022-08-19T12:13:33;23.70;99.90
26230;DHT22;13960;50.860;4.352;2022-08-19T12:15:58;24.00;99.90
26230;DHT22;13960;50.860;4.352;2022-08-19T12:18:24;23.80;99.90
26230;DHT22;13960;50.860;4.352;2022-08-19T12:20:50;23.80;99.90
26230;DHT22;13960;50.860;4.352;2022-08-19T12:23:16;23.80;99.90
26230;DHT22;13960;50.860;4.352;2022-08-19T12:25:45;23.50;99.90
26230;DHT22;13960;50.860;4.352;2022-08-19T12:28:18;23.60;99.90
26230;DHT22;13960;50.860;4.352;2022-08-19T12:30:44;23.70;99.90
26230;DHT22;13960;50.860;4.352;2022-08-19T12:33:09;23.70;99.90
26230;DHT22;13960;50.860;4.352;2022-08-19T12:35:35;23.80;99.90
26230;DHT22;13960;50.860;4.352;2022-08-19T12:38:01;23.80;99.90
26230;DHT22;13960;50.860;4.352;2022-08-19T12:40:28;23.60;99.90
26230;DHT22;13960;50.860;4.352;2022-08-19T12:42:53;23.20;99.90
26230;DHT22;13960;50.860;4.352;2022-08-19T12:45:19;23.30;99.90
26230;DHT22;13960;50.860;4.352;2022-08-19T12:47:45;23.70;99.90
26230;DHT22;13960;50.860;4.352;2022-08-19T12:50:11;23.80;99.90
26230;DHT22;13960;50.860;4.352;2022-08-19T12:52:37;23.90;99.90
26230;DHT22;13960;50.860;4.352;2022-08-19T12:55:03;23.70;99.90
26230;DHT22;13960;50.860;4.352;2022-08-19T12:57:30;23.80;99.90
26230;DHT22;13960;50.860;4.352;2022-08-19T12:59:56;23.70;99.90
26230;DHT22;13960;50.860;4.352;2022-08-19T13:02:22;24.10;99.90
26230;DHT22;13960;50.860;4.352;2022-08-19T13:04:47;24.10;99.90
26230;DHT22;13960;50.860;4.352;2022-08-19T13:07:13;24.40;99.90
26230;DHT22;13960;50.860;4.352;2022-08-19T13:09:38;24.30;99.90
26230;DHT22;13960;50.860;4.352;2022-08-19T13:12:07;24.00;99.90
26230;DHT22;13960;50.860;4.352;2022-08-19T13:14:38;24.00;99.90
26230;DHT22;13960;50.860;4.352;2022-08-19T13:17:03;24.10;99.90
26230;DHT22;13960;50.860;4.352;2022-08-19T13:19:29;24.00;99.90
26230;DHT22;13960;50.860;4.352;2022-08-19T13:21:55;23.90;99.90
26230;DHT22;13960;50.860;4.352;2022-08-19T13:24:21;23.90;99.90
26230;DHT22;13960;50.860;4.352;2022-08-19T13:26:46;23.70;99.90
26230;DHT22;13960;50.860;4.352;2022-08-19T13:29:13;23.90;99.90
26230;DHT22;13960;50.860;4.352;2022-08-19T13:31:57;23.90;99.90
26230;DHT22;13960;50.860;4.352;2022-08-19T13:34:41;24.00;99.90
26230;DHT22;13960;50.860;4.352;2022-08-19T13:37:07;24.20;99.90
26230;DHT22;13960;50.860;4.352;2022-08-19T13:39:33;24.60;99.90
26230;DHT22;13960;50.860;4.352;2022-08-19T13:41:59;24.70;99.90
26230;DHT22;13960;50.860;4.352;2022-08-19T13:44:26;25.00;99.90
26230;DHT22;13960;50.860;4.352;2022-08-19T13:46:55;25.10;99.90
26230;DHT22;13960;50.860;4.352;2022-08-19T13:49:21;24.90;99.90
26230;DHT22;13960;50.860;4.352;2022-08-19T13:51:48;24.80;99.90
26230;DHT22;13960;50.860;4.352;2022-08-19T13:54:13;24.50;99.90
26230;DHT22;13960;50.860;4.352;2022-08-19T13:56:40;24.10;99.90
26230;DHT22;13960;50.860;4.352;2022-08-19T13:59:06;24.00;99.90
26230;DHT22;13960;50.860;4.352;2022-08-19T14:01:31;24.00;99.90
26230;DHT22;13960;50.860;4.352;2022-08-19T14:03:57;23.90;99.90
26230;DHT22;13960;50.860;4.352;2022-08-19T14:06:22;23.40;99.90
26230;DHT22;13960;50.860;4.352;2022-08-19T14:08:48;23.40;99.90
26230;DHT22;13960;50.860;4.352;2022-08-19T14:11:14;23.30;99.90
26230;DHT22;13960;50.860;4.352;2022-08-19T14:13:39;23.30;99.90
26230;DHT22;13960;50.860;4.352;2022-08-19T14:16:08;22.90;99.90
26230;DHT22;13960;50.860;4.352;2022-08-19T14:18:34;22.50;99.90
26230;DHT22;13960;50.860;4.352;2022-08-19T14:21:00;22.20;99.90
26230;DHT22;13960;50.860;4.352;2022-08-19T14:23:25;22.20;99.90
26230;DHT22;13960;50.860;4.352;2022-08-19T14:25:51;22.30;99.90
26230;DHT22;13960;50.860;4.352;2022-08-19T14:28:16;22.30;99.90
26230;DHT22;13960;50.860;4.352;2022-08-19T14:30:42;22.20;99.90
26230;DHT22;13960;50.860;4.352;2022-08-19T14:33:09;22.30;99.90
26230;DHT22;13960;50.860;4.352;2022-08-19T14:35:35;22.30;99.90
26230;DHT22;13960;50.860;4.352;2022-08-19T14:38:02;22.30;99.90
26230;DHT22;13960;50.860;4.352;2022-08-19T14:40:28;22.20;99.90
26230;DHT22;13960;50.860;4.352;2022-08-19T14:42:55;22.10;99.90
26230;DHT22;13960;50.860;4.352;2022-08-19T14:45:27;21.90;99.90
26230;DHT22;13960;50.860;4.352;2022-08-19T14:47:53;21.90;99.90
26230;DHT22;13960;50.860;4.352;2022-08-19T14:50:18;21.90;99.90
26230;DHT22;13960;50.860;4.352;2022-08-19T14:52:46;22.10;99.90
26230;DHT22;13960;50.860;4.352;2022-08-19T14:55:13;22.60;99.90
26230;DHT22;13960;50.860;4.352;2022-08-19T14:57:40;22.70;99.90
26230;DHT22;13960;50.860;4.352;2022-08-19T15:00:05;23.20;99.90
26230;DHT22;13960;50.860;4.352;2022-08-19T15:02:31;23.70;99.90
26230;DHT22;13960;50.860;4.352;2022-08-19T15:04:57;25.00;99.90
26230;DHT22;13960;50.860;4.352;2022-08-19T15:07:22;26.80;99.90
26230;DHT22;13960;50.860;4.352;2022-08-19T15:09:48;27.70;99.90
26230;DHT22;13960;50.860;4.352;2022-08-19T15:12:14;29.20;99.90
26230;DHT22;13960;50.860;4.352;2022-08-19T15:14:40;30.00;99.90
26230;DHT22;13960;50.860;4.352;2022-08-19T15:17:07;28.70;99.90
26230;DHT22;13960;50.860;4.352;2022-08-19T15:19:33;28.30;99.90
26230;DHT22;13960;50.860;4.352;2022-08-19T15:22:01;27.10;99.90
26230;DHT22;13960;50.860;4.352;2022-08-19T15:24:26;27.10;99.90
26230;DHT22;13960;50.860;4.352;2022-08-19T15:26:53;26.10;99.90
26230;DHT22;13960;50.860;4.352;2022-08-19T15:29:18;25.10;99.90
26230;DHT22;13960;50.860;4.352;2022-08-19T15:31:44;24.90;99.90
26230;DHT22;13960;50.860;4.352;2022-08-19T15:34:10;24.70;99.90
26230;DHT22;13960;50.860;4.352;2022-08-19T15:36:35;24.70;99.90
26230;DHT22;13960;50.860;4.352;2022-08-19T15:39:01;24.50;99.90
26230;DHT22;13960;50.860;4.352;2022-08-19T15:41:28;24.30;99.90
26230;DHT22;13960;50.860;4.352;2022-08-19T15:46:21;23.70;99.90